createdAt,value
2023-01-21T00:06:07.219Z,-2.7
2023-01-21T00:16:08.082Z,-2.9
2023-01-21T00:26:08.641Z,-3.1
2023-01-21T00:36:08.730Z,-3.1
2023-01-21T00:46:09.343Z,-3.2
2023-01-21T00:56:09.521Z,-3.1
2023-01-21T01:06:09.887Z,-3.3
2023-01-21T01:16:10.042Z,-3.4
2023-01-21T01:26:10.986Z,-3.4
2023-01-21T01:36:11.791Z,-3.4
2023-01-21T01:46:12.216Z,-3.4
2023-01-21T01:56:13.222Z,-3.5
2023-01-21T02:06:13.769Z,-3.2
2023-01-21T02:26:15.595Z,-3
2023-01-21T02:36:16.626Z,-3.1
2023-01-21T02:46:17.071Z,-3.4
2023-01-21T02:56:17.996Z,-3.3
2023-01-21T03:06:18.340Z,-3
2023-01-21T03:16:19.008Z,-3.5
2023-01-21T03:26:20.036Z,-3.7
2023-01-21T03:36:20.772Z,-3.9
2023-01-21T03:46:20.943Z,-4.1
2023-01-21T03:56:21.212Z,-4.4
2023-01-21T04:06:21.451Z,-4.2
2023-01-21T04:16:22.143Z,-4.2
2023-01-21T04:56:30.727Z,-4.4
2023-01-21T05:36:32.103Z,-4.6
2023-01-21T05:46:32.683Z,-4.7
2023-01-21T05:56:32.945Z,-4.9
2023-01-21T06:06:33.824Z,-4.7
2023-01-21T06:16:34.278Z,-4.8
2023-01-21T06:26:34.536Z,-4.8
2023-01-21T06:36:34.625Z,-4.9
2023-01-21T06:56:35.712Z,-4.1
2023-01-21T07:06:36.376Z,-3.8
2023-01-21T07:16:36.947Z,-3.5
2023-01-21T07:26:37.472Z,-3.2
2023-01-21T07:36:37.839Z,-2.9
2023-01-21T07:46:38.907Z,-2.7
2023-01-21T07:56:38.927Z,-2.6
2023-01-21T08:06:39.399Z,-2.5
2023-01-21T08:16:39.609Z,-2.4
2023-01-21T08:26:40.573Z,-2.3
2023-01-21T08:36:41.280Z,-2.1
2023-01-21T08:46:41.803Z,-2
2023-01-21T08:56:42.657Z,-1.8
2023-01-21T09:06:43.320Z,-1.7
2023-01-21T09:16:44.125Z,-1.5
2023-01-21T09:26:45.016Z,-1.3
2023-01-21T09:36:45.589Z,-1.2
2023-01-21T09:46:46.139Z,-1
2023-01-21T09:56:46.940Z,-0.9
2023-01-21T10:06:47.614Z,-0.8
2023-01-21T10:16:48.157Z,-0.7
2023-01-21T10:26:48.285Z,-0.6
2023-01-21T10:36:48.585Z,-0.4
2023-01-21T10:46:49.455Z,-0.3
2023-01-21T10:56:50.156Z,-0.1
2023-01-21T11:06:50.713Z,0
2023-01-21T11:16:50.785Z,0.1
2023-01-21T11:26:51.813Z,0.2
2023-01-21T11:36:51.956Z,0.3
2023-01-21T11:46:52.898Z,0.4
2023-01-21T11:56:53.802Z,0.4
2023-01-21T12:06:54.808Z,0.5
2023-01-21T12:16:55.076Z,0.6
2023-01-21T12:26:55.589Z,0.7
2023-01-21T12:36:55.819Z,0.7
2023-01-21T12:46:56.089Z,0.7
2023-01-21T12:56:56.118Z,0.8
2023-01-21T13:06:56.498Z,0.8
2023-01-21T13:16:56.954Z,0.8
2023-01-21T13:36:58.824Z,0.9
2023-01-21T13:46:59.100Z,1
2023-01-21T13:56:59.476Z,0.9
2023-01-21T14:27:01.012Z,0.9
2023-01-21T15:17:03.785Z,0.8
2023-01-21T15:37:04.893Z,0.8
2023-01-21T15:47:05.388Z,0.8
2023-01-21T16:07:06.095Z,0.9
2023-01-21T16:17:06.827Z,0.8
2023-01-21T16:27:07.807Z,0.6
2023-01-21T16:37:08.542Z,0.3
2023-01-21T16:47:08.818Z,0
2023-01-21T16:57:09.195Z,-0.3
2023-01-21T17:07:09.904Z,-0.4
2023-01-21T17:17:10.823Z,-0.4
2023-01-21T17:27:11.433Z,-0.3
2023-01-21T17:37:12.027Z,-0.2
2023-01-21T17:47:12.662Z,0
2023-01-21T17:57:12.784Z,0.1
2023-01-21T18:57:15.863Z,0.1
2023-01-21T19:17:17.144Z,0.1
2023-01-21T19:37:18.345Z,0
2023-01-21T19:47:18.716Z,0
2023-01-21T19:57:19.648Z,0
2023-01-21T20:07:20.595Z,0.1
2023-01-21T20:17:21.158Z,0.2
2023-01-21T20:27:22.179Z,0.2
2023-01-21T20:37:22.824Z,0.2
2023-01-21T20:47:27.700Z,0.3
2023-01-21T20:57:24.121Z,0.4
2023-01-21T21:07:24.628Z,0.4
2023-01-21T21:17:25.314Z,0.4
2023-01-21T21:27:26.067Z,0.5
2023-01-21T21:37:26.283Z,0.5
2023-01-21T21:47:26.539Z,0.5
2023-01-21T21:57:26.591Z,0.1
2023-01-21T22:07:27.383Z,-0.2
2023-01-21T22:17:27.521Z,-0.4
2023-01-21T22:27:28.396Z,-0.6
2023-01-21T22:37:28.700Z,-0.6
2023-01-21T22:47:29.574Z,-0.3
2023-01-21T22:57:30.167Z,0
2023-01-21T23:07:31.056Z,0.2
2023-01-21T23:17:31.971Z,0.2
2023-01-21T23:27:32.691Z,0.3
2023-01-21T23:37:33.181Z,0.3
2023-01-21T23:47:34.155Z,0.4
2023-01-21T23:57:35.120Z,0.4
